• Join FlightAware (Why Join?)
  • Login
  • US Flag 
08:31PM EDT


 

Airport Tracker/Info


-or-


 

Live Flight TrackerFlight Track Log ✈ ASQ5941 ✈ 15-Jul-2013 ✈ KAVP - KORD

Flight Track Log - Related Links

Times and Time Zones

All times are in EDT time to prevent confusion due to time zone crossing. See the ASQ5941 flight status page for this flight to view local times or setup timezone preferences in your user account.

Time Position Orientation Groundspeed Altitude Reporting Facility
EDT Latitude Longitude Course Direction KTS MPH feet Rate Location/Type
05:18PM 41.4650 -75.6986 334° Northwest 251 289 5,600  Level New York Center
05:19PM 41.4390 -75.9614 304° West  Level FlightAware Approximate
05:19PM 41.5119 -75.7714 311° West 256 295 7,800  Level New York Center
05:20PM 41.4929 -76.0516 315° West  Level FlightAware Approximate
05:20PM 41.5694 -75.8422 317° Northwest 251 289 10,000  Level New York Center
05:21PM 41.5521 -76.1365 312° West  Level FlightAware Approximate
05:21PM 41.6028 -75.9364 295° West 267 307 11,000  Level New York Center
05:22PM 41.6076 -76.2257 307° West  Level FlightAware Approximate
05:22PM 41.6336 -76.0386 292° West 308 354 11,600  Level New York Center
05:23PM 41.6602 -76.3183 307° West  Level FlightAware Approximate
05:23PM 41.6714 -76.1722 291° West 346 398 12,900  Level New York Center
05:24PM 41.7033 -76.2914 290° West 352 405 14,100 1,080 Climbing New York Center
05:25PM 41.7372 -76.4108 291° West 352 405 15,200 1,020 Climbing New York Center
05:26PM 41.7694 -76.5222 291° West 352 405 16,200 1,020 Climbing New York Center
05:28PM 41.8267 -76.7289 290° West 357 411 17,900 840 Climbing Cleveland Center
05:29PM 41.8619 -76.8525 291° West 357 411 18,600 780 Climbing Cleveland Center
05:30PM 41.8975 -76.9842 290° West 363 418 19,500 900 Climbing Cleveland Center
05:31PM 41.9325 -77.1136 290° West 363 418 20,500 900 Climbing Cleveland Center
05:32PM 41.9678 -77.2428 290° West 368 423 21,400 900 Climbing Cleveland Center
05:33PM 42.0050 -77.3750 291° West 368 423 22,400 900 Climbing Cleveland Center
05:34PM 42.0378 -77.5106 288° West 373 429 23,300 900 Climbing Cleveland Center
05:35PM 42.0747 -77.6431 291° West 378 435 24,200 900 Climbing Cleveland Center
05:36PM 42.1092 -77.7786 289° West 378 435 25,200 900 Climbing Cleveland Center
05:37PM 42.1436 -77.9144 289° West 378 435 26,100 900 Climbing Cleveland Center
05:38PM 42.1822 -78.0500 291° West 378 435 27,000 900 Climbing Cleveland Center
05:39PM 42.2144 -78.1861 288° West 378 435 28,000 900 Climbing Cleveland Center
05:40PM 42.2506 -78.3250 289° West 383 441 28,900 900 Climbing Cleveland Center
05:41PM 42.2886 -78.4639 290° West 383 441 29,900 900 Climbing Cleveland Center
05:42PM 42.3222 -78.6033 288° West 383 441 30,800 900 Climbing Cleveland Center
05:43PM 42.3581 -78.7428 289° West 388 447 31,700 900 Climbing Cleveland Center
05:44PM 42.3956 -78.8822 290° West 393 452 32,700 900 Climbing Cleveland Center
05:45PM 42.4308 -79.0247 289° West 398 458 33,600 600 Climbing Cleveland Center
05:46PM 42.4517 -79.1733 281° West 403 464 34,000 420 Climbing Cleveland Center
05:47PM 42.4053 -79.3206 247° West 394 453 34,500 660 Climbing Cleveland Center
05:48PM 42.3569 -79.4622 245° Southwest 406 467 35,400 720 Climbing Cleveland Center
05:49PM 42.3081 -79.6033 245° Southwest 411 473 36,000 300 Climbing Cleveland Center
05:50PM 42.2531 -79.7500 243° Southwest 425 489 36,000  Level Cleveland Center
05:51PM 42.1997 -79.8964 244° Southwest 430 495 36,000  Level Cleveland Center
05:52PM 42.1464 -80.0539 245° Southwest 452 520 36,000  Level Cleveland Center
05:53PM 42.0906 -80.2028 243° Southwest 447 514 36,000  Level Cleveland Center
05:54PM 42.0369 -80.3539 245° Southwest 447 514 36,000  Level Cleveland Center
05:55PM 41.9808 -80.5050 243° Southwest 447 514 36,000  Level Cleveland Center
05:56PM 41.9203 -80.6697 244° Southwest 447 514 36,000  Level Cleveland Center
05:57PM 41.8639 -80.8231 244° Southwest 447 514 36,000  Level Cleveland Center
05:58PM 41.8092 -80.9703 244° Southwest 447 514 36,000  Level Cleveland Center
05:59PM 41.7544 -81.1231 244° Southwest 447 514 36,000  Level Cleveland Center
06:00PM 41.6972 -81.2700 242° Southwest 447 514 36,000  Level Cleveland Center
06:01PM 41.6422 -81.4222 244° Southwest 447 514 36,000  Level Cleveland Center
06:02PM 41.5847 -81.5742 243° Southwest 447 514 36,000  Level Cleveland Center
06:03PM 41.5269 -81.7258 243° Southwest 447 514 36,000  Level Cleveland Center
06:04PM 41.4919 -81.8889 254° West 458 527 36,000  Level Cleveland Center
06:05PM 41.4772 -82.0547 263° West 458 527 36,000  Level Cleveland Center
06:06PM 41.4647 -82.2208 264° West 458 527 36,000  Level Cleveland Center
06:07PM 41.4494 -82.3922 263° West 463 533 36,000  Level Cleveland Center
06:08PM 41.4364 -82.5581 264° West 463 533 36,000  Level Cleveland Center
06:09PM 41.4208 -82.7264 263° West 463 533 36,000  Level Cleveland Center
06:10PM 41.4050 -82.8919 263° West 463 533 36,000  Level Cleveland Center
06:11PM 41.3889 -83.0631 263° West 463 533 36,000  Level Cleveland Center
06:12PM 41.3731 -83.2119 262° West 457 526 36,000  Level Cleveland Center
06:13PM 41.3567 -83.3800 263° West 464 534 36,000  Level Cleveland Center
06:14PM 41.3439 -83.5511 264° West 464 534 36,000  Level Cleveland Center
06:15PM 41.3394 -83.7194 268° West 464 534 36,000  Level Cleveland Center
06:16PM 41.3467 -83.9053 273° West 459 528 36,000  Level Cleveland Center
06:17PM 41.3517 -84.0428 273° West 461 531 36,000  Level Chicago Center
06:18PM 41.3581 -84.2464 272° West 459 528 36,000  Level Chicago Center
06:19PM 41.3650 -84.4167 273° West 461 531 36,000 -360 Level Chicago Center
06:20PM 41.3625 -84.5894 269° West 466 536 35,300 -840 Descending Chicago Center
06:21PM 41.3497 -84.7592 264° West 462 532 34,300 -660 Descending Chicago Center
06:22PM 41.3394 -84.9275 265° West 459 528 34,000 -180 Descending Chicago Center
06:23PM 41.3317 -85.0944 267° West 452 520 34,000 -540 Level Chicago Center
06:24PM 41.3231 -85.2658 266° West 457 526 33,000 -1,260 Descending Chicago Center
06:25PM 41.3117 -85.4786 266° West 469 540 31,500 -1,020 Descending Chicago Center
06:26PM 41.3039 -85.6539 267° West 471 542 31,000 -480 Descending Chicago Center
06:27PM 41.2939 -85.8233 266° West 461 531 30,600 -960 Descending Chicago Center
06:28PM 41.2850 -85.9978 266° West 468 539 29,100 -1,500 Descending Chicago Center
06:29PM 41.3153 -86.1683 283° West 474 545 27,600 -1,500 Descending Chicago Center
06:30PM 41.3581 -86.3353 289° West 475 547 26,000 -1,560 Descending Chicago Center
06:31PM 41.3986 -86.4983 288° West 469 540 24,400 -2,040 Descending Chicago Center
06:32PM 41.4458 -86.6894 288° West 455 524 21,900 -2,640 Descending Chicago Center
06:33PM 41.4836 -86.8400 289° West 431 496 18,900 -2,700 Descending Chicago Center
06:34PM 41.5172 -86.9792 288° West 409 471 16,300 -2,700 Descending Chicago Center
06:36PM 41.5508 -87.1169 288° West 398 458 13,400 -2,100 Descending Chicago Center
06:37PM 41.5844 -87.2431 290° West 375 432 12,000 -1,200 Descending Chicago Center
06:38PM 41.6611 -87.3719 309° West 370 426 11,000 -960 Descending Chicago Center
06:39PM 41.7222 -87.4722 309° West 357 411 10,100 -1,020 Descending Chicago Center
06:40PM 41.7731 -87.5542 310° West 295 339 9,000 -1,020 Descending Chicago Center
06:41PM 41.8225 -87.6356 309° West 286 329 8,000 -720 Descending Chicago Center
06:42PM 41.8247 -87.7461 272° West 246 283 7,600 -540 Descending Chicago Center
06:43PM 41.8247 -87.8311 270° West 233 268 7,000 -360 Descending Chicago Center
06:44PM 41.8236 -87.9161 269° West 232 267 6,900 -480 Descending Chicago Center
06:45PM 41.7853 -87.9567 218° Southwest 185 213 6,000 -960 Descending Chicago Center
06:46PM 41.7489 -88.0003 222° Southwest 178 205 5,000 -780 Descending Chicago Center
06:47PM 41.7600 -88.0672 283° West 193 222 4,500 -780 Descending Chicago Center
06:48PM 41.8036 -88.0875 341° North 201 231 3,500 -780 Descending Chicago Center
06:49PM 41.8369 -88.0381 48° Northeast 190 219 3,000 -540 Descending Chicago Center